EXS13CS LGKR-EGNT
Flight info
| Callsign | EXS13CS |
|---|---|
| Flight time | 3h 13m |
| Altitude | 32000 |
| Route | OLGAT DCT CRAYE/N0443F360 DCT GISAM DCT SIMBA DCT GASKA DCT MASEK DCT SPY DCT MIMVA L602 NALAX L46 RIMTO |
| Aircraft | B738/M-SDE2E3FGHIRWXY/LB1 |
Departure
| Time | 2026-04-29 19:05 |
|---|---|
| Airport | Corfu Ioannis Kapodistrias International Airport (LGKR) |
Arrival
| Time | 2026-04-29 22:19 |
|---|---|
| Airport | Newcastle International Airport (EGNT) |
| Time | Latitude | Longitude | Altitude | Speed | Heading |
|---|---|---|---|---|---|
| 2026-04-29 18:51 | 39.60668 | 19.91360 | 18 ft | 0 kts | 78° |
| 2026-04-29 18:56 | 39.60666 | 19.91352 | 18 ft | 2 kts | 78° |
| 2026-04-29 18:56 | 39.60663 | 19.91327 | 17 ft | 3 kts | 79° |
| 2026-04-29 18:57 | 39.60659 | 19.91301 | 17 ft | 3 kts | 79° |
| 2026-04-29 18:57 | 39.60655 | 19.91276 | 20 ft | 3 kts | 81° |
| 2026-04-29 18:57 | 39.60654 | 19.91250 | 21 ft | 3 kts | 103° |
| 2026-04-29 18:57 | 39.60661 | 19.91230 | 20 ft | 3 kts | 146° |
| 2026-04-29 18:58 | 39.60672 | 19.91224 | 20 ft | 1 kts | 168° |
| 2026-04-29 18:58 | 39.60688 | 19.91220 | 17 ft | 2 kts | 168° |
| 2026-04-29 18:58 | 39.60692 | 19.91219 | 17 ft | 1 kts | 168° |
| 2026-04-29 19:01 | 39.60678 | 19.91222 | 19 ft | 6 kts | 168° |
| 2026-04-29 19:01 | 39.60640 | 19.91230 | 19 ft | 7 kts | 174° |
| 2026-04-29 19:01 | 39.60583 | 19.91201 | 18 ft | 10 kts | 221° |
| 2026-04-29 19:01 | 39.60526 | 19.91154 | 18 ft | 10 kts | 199° |
| 2026-04-29 19:02 | 39.60453 | 19.91148 | 19 ft | 14 kts | 174° |
| 2026-04-29 19:02 | 39.60374 | 19.91168 | 18 ft | 21 kts | 169° |
| 2026-04-29 19:02 | 39.60125 | 19.91232 | 20 ft | 32 kts | 168° |
| 2026-04-29 19:02 | 39.59890 | 19.91293 | 21 ft | 35 kts | 168° |
| 2026-04-29 19:03 | 39.59657 | 19.91354 | 18 ft | 33 kts | 169° |
| 2026-04-29 19:03 | 39.59436 | 19.91411 | 18 ft | 31 kts | 169° |
| 2026-04-29 19:03 | 39.59285 | 19.91450 | 16 ft | 16 kts | 168° |
| 2026-04-29 19:03 | 39.59203 | 19.91490 | 17 ft | 10 kts | 136° |
| 2026-04-29 19:04 | 39.59159 | 19.91500 | 16 ft | 6 kts | 225° |
| 2026-04-29 19:04 | 39.59173 | 19.91469 | 17 ft | 7 kts | 346° |
| 2026-04-29 19:04 | 39.59234 | 19.91461 | 19 ft | 10 kts | 348° |
| 2026-04-29 19:04 | 39.59440 | 19.91408 | 16 ft | 65 kts | 349° |
| 2026-04-29 19:05 | 39.60115 | 19.91234 | 20 ft | 133 kts | 348° |
| 2026-04-29 19:05 | 39.61189 | 19.90952 | 225 ft | 172 kts | 349° |
| 2026-04-29 19:05 | 39.62437 | 19.90664 | 800 ft | 191 kts | 349° |
| 2026-04-29 19:05 | 39.63752 | 19.90358 | 1681 ft | 192 kts | 348° |
| 2026-04-29 19:06 | 39.65024 | 19.89728 | 2355 ft | 204 kts | 324° |
| 2026-04-29 19:06 | 39.65932 | 19.88302 | 2865 ft | 213 kts | 289° |
| 2026-04-29 19:06 | 39.65965 | 19.84458 | 4150 ft | 215 kts | 268° |
| 2026-04-29 19:07 | 39.65939 | 19.82499 | 4825 ft | 218 kts | 269° |
| 2026-04-29 19:07 | 39.65931 | 19.81833 | 5045 ft | 218 kts | 269° |
| 2026-04-29 19:07 | 39.66482 | 19.78644 | 5965 ft | 232 kts | 303° |
| 2026-04-29 19:07 | 39.67547 | 19.76975 | 6361 ft | 246 kts | 311° |
| 2026-04-29 19:08 | 39.68749 | 19.75360 | 6944 ft | 250 kts | 313° |
| 2026-04-29 19:08 | 39.69979 | 19.73738 | 7505 ft | 259 kts | 313° |
| 2026-04-29 19:08 | 39.71285 | 19.72005 | 8002 ft | 273 kts | 313° |
| 2026-04-29 19:08 | 39.72624 | 19.70215 | 8767 ft | 278 kts | 313° |
| 2026-04-29 19:09 | 39.73968 | 19.68405 | 9596 ft | 279 kts | 313° |
| 2026-04-29 19:09 | 39.75321 | 19.66573 | 10372 ft | 284 kts | 313° |
| 2026-04-29 19:09 | 39.76735 | 19.64651 | 10634 ft | 307 kts | 313° |
| 2026-04-29 19:09 | 39.78262 | 19.62569 | 10827 ft | 329 kts | 313° |
| 2026-04-29 19:10 | 39.79874 | 19.60369 | 11285 ft | 341 kts | 313° |
| 2026-04-29 19:10 | 39.81495 | 19.58155 | 11973 ft | 344 kts | 312° |
| 2026-04-29 19:10 | 39.83149 | 19.55894 | 12736 ft | 346 kts | 312° |
| 2026-04-29 19:10 | 39.84819 | 19.53609 | 13455 ft | 350 kts | 312° |
| 2026-04-29 19:11 | 39.86515 | 19.51305 | 14123 ft | 354 kts | 313° |
| 2026-04-29 19:11 | 39.88238 | 19.48994 | 14778 ft | 357 kts | 313° |
| 2026-04-29 19:11 | 39.89974 | 19.46672 | 15447 ft | 359 kts | 313° |
| 2026-04-29 19:11 | 39.91722 | 19.44332 | 16094 ft | 362 kts | 313° |
| 2026-04-29 19:12 | 39.93486 | 19.41969 | 16728 ft | 365 kts | 313° |
| 2026-04-29 19:12 | 39.95258 | 19.39590 | 17368 ft | 368 kts | 313° |
| 2026-04-29 19:12 | 39.97050 | 19.37181 | 17995 ft | 371 kts | 313° |
| 2026-04-29 19:12 | 39.97656 | 19.36365 | 18217 ft | 372 kts | 313° |
| 2026-04-29 19:13 | 40.00661 | 19.32317 | 19125 ft | 377 kts | 312° |
| 2026-04-29 19:13 | 40.02492 | 19.29848 | 19645 ft | 380 kts | 312° |
| 2026-04-29 19:13 | 40.04333 | 19.27362 | 20178 ft | 382 kts | 312° |
| 2026-04-29 19:13 | 40.06188 | 19.24856 | 20700 ft | 385 kts | 312° |
| 2026-04-29 19:14 | 40.08055 | 19.22332 | 21215 ft | 388 kts | 312° |
| 2026-04-29 19:14 | 40.09936 | 19.19787 | 21714 ft | 391 kts | 312° |
| 2026-04-29 19:14 | 40.11828 | 19.17223 | 22215 ft | 393 kts | 312° |
| 2026-04-29 19:14 | 40.13735 | 19.14637 | 22696 ft | 396 kts | 312° |
| 2026-04-29 19:15 | 40.15630 | 19.12067 | 23170 ft | 399 kts | 312° |
| 2026-04-29 19:15 | 40.17588 | 19.09407 | 23653 ft | 402 kts | 312° |
| 2026-04-29 19:15 | 40.19505 | 19.06802 | 24049 ft | 404 kts | 312° |
| 2026-04-29 19:15 | 40.21457 | 19.04148 | 24459 ft | 406 kts | 311° |
| 2026-04-29 19:16 | 40.23310 | 19.01626 | 24845 ft | 407 kts | 312° |
| 2026-04-29 19:16 | 40.25472 | 18.99206 | 25190 ft | 414 kts | 326° |
| 2026-04-29 19:16 | 40.28013 | 18.97407 | 25598 ft | 417 kts | 330° |
| 2026-04-29 19:16 | 40.30608 | 18.95687 | 25987 ft | 419 kts | 330° |
| 2026-04-29 19:17 | 40.33221 | 18.93970 | 26323 ft | 421 kts | 330° |
| 2026-04-29 19:17 | 40.35844 | 18.92235 | 26683 ft | 423 kts | 330° |
| 2026-04-29 19:17 | 40.38474 | 18.90480 | 27046 ft | 425 kts | 330° |
| 2026-04-29 19:17 | 40.41110 | 18.88705 | 27405 ft | 427 kts | 329° |
| 2026-04-29 19:18 | 40.43751 | 18.86914 | 27747 ft | 428 kts | 329° |
| 2026-04-29 19:18 | 40.44610 | 18.86330 | 27872 ft | 429 kts | 329° |
| 2026-04-29 19:18 | 40.49064 | 18.83292 | 28413 ft | 432 kts | 329° |
| 2026-04-29 19:18 | 40.51733 | 18.81467 | 28743 ft | 434 kts | 329° |
| 2026-04-29 19:19 | 40.53507 | 18.80252 | 28955 ft | 435 kts | 329° |
| 2026-04-29 19:19 | 40.56195 | 18.78411 | 29260 ft | 436 kts | 329° |
| 2026-04-29 19:19 | 40.58888 | 18.76565 | 29550 ft | 438 kts | 329° |
| 2026-04-29 19:19 | 40.61597 | 18.74707 | 29939 ft | 438 kts | 329° |
| 2026-04-29 19:20 | 40.64291 | 18.72858 | 30364 ft | 435 kts | 329° |
| 2026-04-29 19:20 | 40.66969 | 18.71020 | 30769 ft | 433 kts | 329° |
| 2026-04-29 19:20 | 40.69636 | 18.69187 | 31114 ft | 432 kts | 329° |
| 2026-04-29 19:20 | 40.72295 | 18.67357 | 31429 ft | 431 kts | 329° |
| 2026-04-29 19:21 | 40.74952 | 18.65526 | 31770 ft | 430 kts | 329° |
| 2026-04-29 19:21 | 40.77596 | 18.63703 | 32054 ft | 431 kts | 329° |
| 2026-04-29 19:21 | 40.80268 | 18.61856 | 32032 ft | 435 kts | 329° |
| 2026-04-29 19:22 | 40.85613 | 18.58162 | 32036 ft | 431 kts | 329° |
| 2026-04-29 19:22 | 40.90884 | 18.54514 | 32044 ft | 427 kts | 328° |
| 2026-04-29 19:23 | 40.96109 | 18.50888 | 32049 ft | 427 kts | 328° |
| 2026-04-29 19:23 | 41.01409 | 18.47204 | 32043 ft | 428 kts | 328° |
| 2026-04-29 19:24 | 41.06647 | 18.43556 | 32039 ft | 428 kts | 328° |
| 2026-04-29 19:24 | 41.11917 | 18.39881 | 32034 ft | 428 kts | 328° |
| 2026-04-29 19:25 | 41.17195 | 18.36193 | 32033 ft | 428 kts | 328° |
| 2026-04-29 19:25 | 41.22300 | 18.32619 | 32032 ft | 428 kts | 328° |
| 2026-04-29 19:26 | 41.27570 | 18.28923 | 32029 ft | 428 kts | 328° |
| 2026-04-29 19:26 | 41.32838 | 18.25221 | 32030 ft | 428 kts | 328° |
| 2026-04-29 19:27 | 41.38093 | 18.21522 | 32032 ft | 427 kts | 328° |
| 2026-04-29 19:27 | 41.43348 | 18.17816 | 32027 ft | 427 kts | 328° |
| 2026-04-29 19:28 | 41.48592 | 18.14111 | 32024 ft | 426 kts | 328° |
| 2026-04-29 19:28 | 41.53673 | 18.10064 | 32122 ft | 427 kts | 323° |
| 2026-04-29 19:28 | 41.56143 | 18.07861 | 32435 ft | 425 kts | 322° |
| 2026-04-29 19:29 | 41.58588 | 18.05657 | 32841 ft | 423 kts | 322° |
| 2026-04-29 19:29 | 41.61017 | 18.03470 | 33255 ft | 419 kts | 322° |
| 2026-04-29 19:29 | 41.63403 | 18.01332 | 33627 ft | 417 kts | 322° |
| 2026-04-29 19:29 | 41.65813 | 17.99181 | 33933 ft | 417 kts | 322° |
| 2026-04-29 19:30 | 41.68227 | 17.97032 | 34183 ft | 417 kts | 322° |
| 2026-04-29 19:30 | 41.70639 | 17.94887 | 34443 ft | 416 kts | 322° |
| 2026-04-29 19:30 | 41.73044 | 17.92747 | 34690 ft | 415 kts | 322° |
| 2026-04-29 19:30 | 41.75447 | 17.90607 | 34920 ft | 415 kts | 322° |
| 2026-04-29 19:31 | 41.77723 | 17.88580 | 35137 ft | 414 kts | 322° |
| 2026-04-29 19:31 | 41.80119 | 17.86442 | 35355 ft | 414 kts | 322° |
| 2026-04-29 19:31 | 41.82518 | 17.84299 | 35573 ft | 414 kts | 322° |
| 2026-04-29 19:31 | 41.84908 | 17.82163 | 35800 ft | 413 kts | 322° |
| 2026-04-29 19:32 | 41.87300 | 17.80024 | 36005 ft | 413 kts | 322° |
| 2026-04-29 19:32 | 41.92137 | 17.75737 | 36022 ft | 421 kts | 326° |
| 2026-04-29 19:33 | 41.97423 | 17.72122 | 36024 ft | 429 kts | 330° |
| 2026-04-29 19:33 | 42.02804 | 17.68595 | 36028 ft | 432 kts | 330° |
| 2026-04-29 19:34 | 42.08205 | 17.65030 | 36026 ft | 433 kts | 329° |
| 2026-04-29 19:34 | 42.13591 | 17.61443 | 36021 ft | 432 kts | 329° |
| 2026-04-29 19:35 | 42.18967 | 17.57845 | 36021 ft | 430 kts | 329° |
| 2026-04-29 19:35 | 42.24271 | 17.54285 | 36023 ft | 428 kts | 329° |
| 2026-04-29 19:36 | 42.29591 | 17.50707 | 36026 ft | 426 kts | 329° |
| 2026-04-29 19:36 | 42.34882 | 17.47141 | 36028 ft | 424 kts | 329° |
| 2026-04-29 19:37 | 42.40148 | 17.43586 | 36030 ft | 422 kts | 329° |
| 2026-04-29 19:37 | 42.45395 | 17.40037 | 36031 ft | 421 kts | 329° |
| 2026-04-29 19:38 | 42.50629 | 17.36491 | 36033 ft | 420 kts | 329° |
| 2026-04-29 19:38 | 42.55858 | 17.32940 | 36039 ft | 420 kts | 329° |
| 2026-04-29 19:39 | 42.61084 | 17.29385 | 36038 ft | 420 kts | 329° |
| 2026-04-29 19:39 | 42.66315 | 17.25820 | 36036 ft | 421 kts | 329° |
| 2026-04-29 19:40 | 42.71551 | 17.22245 | 36037 ft | 421 kts | 329° |
| 2026-04-29 19:40 | 42.76796 | 17.18658 | 36038 ft | 422 kts | 329° |
| 2026-04-29 19:41 | 42.82044 | 17.15061 | 36038 ft | 423 kts | 329° |
| 2026-04-29 19:41 | 42.87296 | 17.11454 | 36038 ft | 423 kts | 329° |
| 2026-04-29 19:42 | 42.92553 | 17.07838 | 36041 ft | 423 kts | 329° |
| 2026-04-29 19:42 | 42.97777 | 17.04238 | 36042 ft | 423 kts | 329° |
| 2026-04-29 19:43 | 43.03033 | 17.00608 | 36044 ft | 423 kts | 329° |
| 2026-04-29 19:43 | 43.08287 | 16.96973 | 36041 ft | 423 kts | 329° |
| 2026-04-29 19:44 | 43.13534 | 16.93335 | 36043 ft | 423 kts | 329° |
| 2026-04-29 19:44 | 43.18775 | 16.89694 | 36044 ft | 422 kts | 329° |
| 2026-04-29 19:45 | 43.24010 | 16.86051 | 36046 ft | 422 kts | 328° |
| 2026-04-29 19:45 | 43.29233 | 16.82409 | 36048 ft | 421 kts | 328° |
| 2026-04-29 19:46 | 43.34447 | 16.78767 | 36056 ft | 420 kts | 328° |
| 2026-04-29 19:46 | 43.39519 | 16.75216 | 36051 ft | 420 kts | 328° |
| 2026-04-29 19:47 | 43.44716 | 16.71571 | 36053 ft | 419 kts | 328° |
| 2026-04-29 19:47 | 43.49907 | 16.67923 | 36062 ft | 419 kts | 328° |
| 2026-04-29 19:48 | 43.55093 | 16.64272 | 36060 ft | 418 kts | 328° |
| 2026-04-29 19:48 | 43.60230 | 16.60648 | 36069 ft | 418 kts | 328° |
| 2026-04-29 19:49 | 43.65401 | 16.56993 | 36062 ft | 418 kts | 328° |
| 2026-04-29 19:49 | 43.70571 | 16.53331 | 36069 ft | 418 kts | 328° |
| 2026-04-29 19:50 | 43.75743 | 16.49661 | 36074 ft | 418 kts | 328° |
| 2026-04-29 19:50 | 43.80915 | 16.45985 | 36068 ft | 418 kts | 328° |
| 2026-04-29 19:51 | 43.86086 | 16.42301 | 36096 ft | 418 kts | 328° |
| 2026-04-29 19:51 | 43.91257 | 16.38610 | 36090 ft | 418 kts | 328° |
| 2026-04-29 19:52 | 43.96424 | 16.34915 | 36096 ft | 418 kts | 328° |
| 2026-04-29 19:52 | 44.01586 | 16.31216 | 36110 ft | 417 kts | 328° |
| 2026-04-29 19:53 | 44.06744 | 16.27512 | 36110 ft | 417 kts | 328° |
| 2026-04-29 19:53 | 44.11901 | 16.23802 | 36122 ft | 417 kts | 328° |
| 2026-04-29 19:54 | 44.19644 | 16.18218 | 36124 ft | 418 kts | 328° |
| 2026-04-29 19:54 | 44.24765 | 16.14515 | 36124 ft | 417 kts | 328° |
| 2026-04-29 19:55 | 44.29912 | 16.10788 | 36141 ft | 416 kts | 327° |
| 2026-04-29 19:55 | 44.35047 | 16.07061 | 36144 ft | 416 kts | 327° |
| 2026-04-29 19:56 | 44.40173 | 16.03333 | 36158 ft | 415 kts | 327° |
| 2026-04-29 19:56 | 44.45282 | 15.99611 | 36177 ft | 413 kts | 327° |
| 2026-04-29 19:57 | 44.49518 | 15.96517 | 36181 ft | 413 kts | 327° |
| 2026-04-29 19:57 | 44.55473 | 15.92160 | 36185 ft | 413 kts | 327° |
| 2026-04-29 19:58 | 44.60554 | 15.88436 | 36196 ft | 412 kts | 327° |
| 2026-04-29 19:58 | 44.65625 | 15.84711 | 36208 ft | 411 kts | 327° |
| 2026-04-29 19:59 | 44.70696 | 15.80978 | 36223 ft | 412 kts | 327° |
| 2026-04-29 19:59 | 44.75782 | 15.77226 | 36221 ft | 413 kts | 327° |
| 2026-04-29 20:00 | 44.80876 | 15.73462 | 36226 ft | 414 kts | 327° |
| 2026-04-29 20:00 | 44.85969 | 15.69691 | 36227 ft | 414 kts | 327° |
| 2026-04-29 20:01 | 44.90934 | 15.66008 | 36240 ft | 413 kts | 327° |
| 2026-04-29 20:01 | 44.95975 | 15.62261 | 36242 ft | 412 kts | 327° |
| 2026-04-29 20:02 | 45.01042 | 15.58487 | 36237 ft | 411 kts | 327° |
| 2026-04-29 20:02 | 45.04419 | 15.55968 | 36254 ft | 410 kts | 327° |
| 2026-04-29 20:03 | 45.11127 | 15.50953 | 36252 ft | 409 kts | 327° |
| 2026-04-29 20:03 | 45.16151 | 15.47188 | 36247 ft | 408 kts | 327° |
| 2026-04-29 20:04 | 45.21170 | 15.43419 | 36260 ft | 408 kts | 327° |
| 2026-04-29 20:04 | 45.26179 | 15.39650 | 36256 ft | 407 kts | 327° |
| 2026-04-29 20:05 | 45.31171 | 15.35885 | 36264 ft | 406 kts | 327° |
| 2026-04-29 20:05 | 45.36161 | 15.32115 | 36263 ft | 406 kts | 327° |
| 2026-04-29 20:06 | 45.41147 | 15.28341 | 36259 ft | 406 kts | 327° |
| 2026-04-29 20:06 | 45.46091 | 15.24592 | 36260 ft | 405 kts | 327° |
| 2026-04-29 20:07 | 45.51062 | 15.20814 | 36263 ft | 405 kts | 327° |
| 2026-04-29 20:07 | 45.56033 | 15.17028 | 36255 ft | 405 kts | 327° |
| 2026-04-29 20:08 | 45.60161 | 15.13879 | 36252 ft | 405 kts | 327° |
| 2026-04-29 20:08 | 45.65959 | 15.09447 | 36262 ft | 403 kts | 327° |
| 2026-04-29 20:09 | 45.70903 | 15.05658 | 36262 ft | 403 kts | 327° |
| 2026-04-29 20:09 | 45.75839 | 15.01869 | 36270 ft | 402 kts | 327° |
| 2026-04-29 20:10 | 45.80767 | 14.98078 | 36270 ft | 403 kts | 327° |
| 2026-04-29 20:10 | 45.85714 | 14.94263 | 36264 ft | 404 kts | 327° |
| 2026-04-29 20:11 | 45.90671 | 14.90434 | 36274 ft | 405 kts | 327° |
| 2026-04-29 20:11 | 45.95639 | 14.86589 | 36269 ft | 406 kts | 327° |
| 2026-04-29 20:12 | 45.99775 | 14.83381 | 36267 ft | 407 kts | 327° |
| 2026-04-29 20:12 | 46.04755 | 14.79512 | 36279 ft | 407 kts | 327° |
| 2026-04-29 20:13 | 46.09742 | 14.75631 | 36275 ft | 408 kts | 327° |
| 2026-04-29 20:13 | 46.14731 | 14.71738 | 36265 ft | 408 kts | 327° |
| 2026-04-29 20:14 | 46.19724 | 14.67835 | 36270 ft | 408 kts | 327° |
| 2026-04-29 20:14 | 46.24718 | 14.63923 | 36265 ft | 408 kts | 327° |
| 2026-04-29 20:15 | 46.29710 | 14.60004 | 36259 ft | 409 kts | 327° |
| 2026-04-29 20:15 | 46.34703 | 14.56077 | 36262 ft | 407 kts | 327° |
| 2026-04-29 20:16 | 46.39682 | 14.52151 | 36257 ft | 408 kts | 327° |
| 2026-04-29 20:16 | 46.44628 | 14.48244 | 36273 ft | 408 kts | 327° |
| 2026-04-29 20:17 | 46.49620 | 14.44292 | 36298 ft | 409 kts | 327° |
| 2026-04-29 20:17 | 46.54627 | 14.40319 | 36294 ft | 411 kts | 327° |
| 2026-04-29 20:18 | 46.59650 | 14.36325 | 36301 ft | 412 kts | 327° |
| 2026-04-29 20:18 | 46.64689 | 14.32311 | 36296 ft | 413 kts | 327° |
| 2026-04-29 20:19 | 46.69742 | 14.28277 | 36290 ft | 415 kts | 328° |
| 2026-04-29 20:19 | 46.74813 | 14.24219 | 36289 ft | 417 kts | 328° |
| 2026-04-29 20:20 | 46.79896 | 14.20144 | 36285 ft | 418 kts | 328° |
| 2026-04-29 20:20 | 46.84998 | 14.16043 | 36273 ft | 419 kts | 328° |
| 2026-04-29 20:21 | 46.90079 | 14.11952 | 36271 ft | 420 kts | 328° |
| 2026-04-29 20:21 | 46.95206 | 14.07813 | 36265 ft | 422 kts | 328° |
| 2026-04-29 20:22 | 47.00348 | 14.03654 | 36259 ft | 423 kts | 328° |
| 2026-04-29 20:22 | 47.05508 | 13.99470 | 36259 ft | 425 kts | 329° |
| 2026-04-29 20:23 | 47.10684 | 13.95265 | 36257 ft | 426 kts | 329° |
| 2026-04-29 20:23 | 47.15867 | 13.91044 | 36260 ft | 426 kts | 329° |
| 2026-04-29 20:24 | 47.21053 | 13.86811 | 36254 ft | 426 kts | 329° |
| 2026-04-29 20:24 | 47.26235 | 13.82573 | 36266 ft | 426 kts | 329° |
| 2026-04-29 20:25 | 47.31418 | 13.78323 | 36275 ft | 426 kts | 329° |
| 2026-04-29 20:25 | 47.36594 | 13.74070 | 36270 ft | 426 kts | 329° |
| 2026-04-29 20:26 | 47.41764 | 13.69811 | 36260 ft | 425 kts | 329° |
| 2026-04-29 20:26 | 47.46924 | 13.65552 | 36265 ft | 424 kts | 329° |
| 2026-04-29 20:27 | 47.51201 | 13.62014 | 36269 ft | 424 kts | 329° |
| 2026-04-29 20:27 | 47.57176 | 13.57060 | 36274 ft | 424 kts | 330° |
| 2026-04-29 20:28 | 47.62322 | 13.52783 | 36274 ft | 424 kts | 330° |
| 2026-04-29 20:28 | 47.67461 | 13.48503 | 36273 ft | 424 kts | 330° |
| 2026-04-29 20:29 | 47.72606 | 13.44206 | 36286 ft | 425 kts | 330° |
| 2026-04-29 20:29 | 47.77763 | 13.39891 | 36288 ft | 426 kts | 330° |
| 2026-04-29 20:30 | 47.82929 | 13.35558 | 36283 ft | 427 kts | 330° |
| 2026-04-29 20:30 | 47.88102 | 13.31209 | 36289 ft | 428 kts | 330° |
| 2026-04-29 20:31 | 47.93152 | 13.26953 | 36299 ft | 429 kts | 330° |
| 2026-04-29 20:31 | 47.98352 | 13.22562 | 36289 ft | 430 kts | 330° |
| 2026-04-29 20:32 | 48.03558 | 13.18154 | 36292 ft | 431 kts | 331° |
| 2026-04-29 20:32 | 48.08776 | 13.13726 | 36294 ft | 431 kts | 331° |
| 2026-04-29 20:33 | 48.13988 | 13.09293 | 36293 ft | 431 kts | 331° |
| 2026-04-29 20:33 | 48.19202 | 13.04847 | 36297 ft | 431 kts | 331° |
| 2026-04-29 20:34 | 48.24306 | 13.00150 | 36293 ft | 431 kts | 323° |
| 2026-04-29 20:34 | 48.28961 | 12.94487 | 36291 ft | 431 kts | 322° |
| 2026-04-29 20:35 | 48.33545 | 12.88793 | 36300 ft | 430 kts | 322° |
| 2026-04-29 20:35 | 48.38158 | 12.83091 | 36303 ft | 429 kts | 322° |
| 2026-04-29 20:36 | 48.42775 | 12.77405 | 36303 ft | 428 kts | 323° |
| 2026-04-29 20:36 | 48.47386 | 12.71726 | 36313 ft | 428 kts | 323° |
| 2026-04-29 20:37 | 48.51987 | 12.66047 | 36310 ft | 428 kts | 323° |
| 2026-04-29 20:37 | 48.56588 | 12.60355 | 36311 ft | 428 kts | 323° |
| 2026-04-29 20:38 | 48.61186 | 12.54651 | 36312 ft | 428 kts | 323° |
| 2026-04-29 20:38 | 48.65782 | 12.48934 | 36312 ft | 428 kts | 323° |
| 2026-04-29 20:39 | 48.70376 | 12.43208 | 36316 ft | 428 kts | 323° |
| 2026-04-29 20:39 | 48.74972 | 12.37464 | 36311 ft | 428 kts | 323° |
| 2026-04-29 20:40 | 48.79568 | 12.31707 | 36323 ft | 429 kts | 323° |
| 2026-04-29 20:40 | 48.84133 | 12.25975 | 36324 ft | 429 kts | 323° |
| 2026-04-29 20:41 | 48.88734 | 12.20183 | 36324 ft | 430 kts | 323° |
| 2026-04-29 20:41 | 48.93331 | 12.14380 | 36326 ft | 430 kts | 323° |
| 2026-04-29 20:42 | 48.97930 | 12.08562 | 36333 ft | 430 kts | 323° |
| 2026-04-29 20:42 | 49.02529 | 12.02730 | 36340 ft | 431 kts | 323° |
| 2026-04-29 20:43 | 49.07134 | 11.96875 | 36344 ft | 431 kts | 323° |
| 2026-04-29 20:43 | 49.11733 | 11.91012 | 36353 ft | 431 kts | 323° |
| 2026-04-29 20:44 | 49.16335 | 11.85132 | 36348 ft | 431 kts | 324° |
| 2026-04-29 20:44 | 49.20940 | 11.79233 | 36352 ft | 432 kts | 324° |
| 2026-04-29 20:45 | 49.25544 | 11.73320 | 36344 ft | 432 kts | 324° |
| 2026-04-29 20:45 | 49.30149 | 11.67392 | 36347 ft | 432 kts | 324° |
| 2026-04-29 20:46 | 49.34560 | 11.61699 | 36345 ft | 433 kts | 324° |
| 2026-04-29 20:46 | 49.39196 | 11.55699 | 36346 ft | 433 kts | 324° |
| 2026-04-29 20:47 | 49.43791 | 11.49738 | 36347 ft | 432 kts | 324° |
| 2026-04-29 20:47 | 49.48383 | 11.43767 | 36346 ft | 432 kts | 324° |
| 2026-04-29 20:48 | 49.52973 | 11.37782 | 36334 ft | 432 kts | 324° |
| 2026-04-29 20:48 | 49.57556 | 11.31792 | 36342 ft | 432 kts | 324° |
| 2026-04-29 20:49 | 49.62132 | 11.25794 | 36343 ft | 432 kts | 324° |
| 2026-04-29 20:49 | 49.66709 | 11.19781 | 36343 ft | 432 kts | 324° |
| 2026-04-29 20:50 | 49.71285 | 11.13754 | 36349 ft | 432 kts | 324° |
| 2026-04-29 20:50 | 49.75859 | 11.07713 | 36353 ft | 433 kts | 324° |
| 2026-04-29 20:51 | 49.80438 | 11.01652 | 36356 ft | 433 kts | 324° |
| 2026-04-29 20:51 | 49.85019 | 10.95571 | 36361 ft | 434 kts | 324° |
| 2026-04-29 20:52 | 49.89602 | 10.89470 | 36370 ft | 434 kts | 324° |
| 2026-04-29 20:52 | 49.94188 | 10.83351 | 36373 ft | 435 kts | 324° |
| 2026-04-29 20:53 | 49.98776 | 10.77213 | 36377 ft | 436 kts | 324° |
| 2026-04-29 20:53 | 50.03338 | 10.71093 | 36380 ft | 436 kts | 324° |
| 2026-04-29 20:54 | 50.10233 | 10.61814 | 36385 ft | 437 kts | 324° |
| 2026-04-29 20:55 | 50.14834 | 10.55602 | 36381 ft | 438 kts | 324° |
| 2026-04-29 20:55 | 50.19436 | 10.49372 | 36394 ft | 438 kts | 324° |
| 2026-04-29 20:56 | 50.24040 | 10.43122 | 36386 ft | 439 kts | 324° |
| 2026-04-29 20:56 | 50.28649 | 10.36847 | 36393 ft | 439 kts | 324° |
| 2026-04-29 20:57 | 50.33256 | 10.30563 | 36399 ft | 440 kts | 324° |
| 2026-04-29 20:57 | 50.37661 | 10.23837 | 36408 ft | 446 kts | 317° |
| 2026-04-29 20:58 | 50.41724 | 10.16462 | 36401 ft | 448 kts | 316° |
| 2026-04-29 20:58 | 50.45769 | 10.09041 | 36402 ft | 447 kts | 316° |
| 2026-04-29 20:59 | 50.49847 | 10.01654 | 36393 ft | 448 kts | 317° |
| 2026-04-29 20:59 | 50.53936 | 9.94280 | 36403 ft | 448 kts | 317° |
| 2026-04-29 21:00 | 50.57998 | 9.86939 | 36397 ft | 448 kts | 317° |
| 2026-04-29 21:00 | 50.62084 | 9.79528 | 36396 ft | 449 kts | 317° |
| 2026-04-29 21:01 | 50.66169 | 9.72095 | 36403 ft | 449 kts | 316° |
| 2026-04-29 21:01 | 50.70148 | 9.64838 | 36411 ft | 449 kts | 316° |
| 2026-04-29 21:02 | 50.74123 | 9.57206 | 36406 ft | 454 kts | 311° |
| 2026-04-29 21:02 | 50.77624 | 9.48878 | 36401 ft | 456 kts | 308° |
| 2026-04-29 21:03 | 50.81040 | 9.40421 | 36411 ft | 456 kts | 308° |
| 2026-04-29 21:03 | 50.84477 | 9.31985 | 36407 ft | 456 kts | 309° |
| 2026-04-29 21:04 | 50.87939 | 9.23566 | 36421 ft | 456 kts | 309° |
| 2026-04-29 21:04 | 50.91406 | 9.15144 | 36419 ft | 457 kts | 309° |
| 2026-04-29 21:05 | 50.94287 | 9.08128 | 36420 ft | 457 kts | 309° |
| 2026-04-29 21:05 | 50.97749 | 8.99670 | 36419 ft | 457 kts | 309° |
| 2026-04-29 21:06 | 51.01205 | 8.91196 | 36416 ft | 458 kts | 309° |
| 2026-04-29 21:06 | 51.04659 | 8.82697 | 36413 ft | 458 kts | 308° |
| 2026-04-29 21:07 | 51.08107 | 8.74186 | 36413 ft | 458 kts | 308° |
| 2026-04-29 21:07 | 51.11549 | 8.65663 | 36408 ft | 458 kts | 308° |
| 2026-04-29 21:08 | 51.14987 | 8.57119 | 36413 ft | 458 kts | 308° |
| 2026-04-29 21:08 | 51.18420 | 8.48561 | 36406 ft | 458 kts | 308° |
| 2026-04-29 21:09 | 51.21849 | 8.39985 | 36400 ft | 459 kts | 308° |
| 2026-04-29 21:09 | 51.25270 | 8.31400 | 36399 ft | 459 kts | 308° |
| 2026-04-29 21:10 | 51.28685 | 8.22801 | 36398 ft | 458 kts | 308° |
| 2026-04-29 21:10 | 51.32068 | 8.14253 | 36398 ft | 458 kts | 308° |
| 2026-04-29 21:11 | 51.35469 | 8.05635 | 36387 ft | 458 kts | 308° |
| 2026-04-29 21:11 | 51.38864 | 7.97001 | 36383 ft | 458 kts | 308° |
| 2026-04-29 21:12 | 51.42253 | 7.88353 | 36377 ft | 458 kts | 308° |
| 2026-04-29 21:12 | 51.45634 | 7.79695 | 36373 ft | 458 kts | 307° |
| 2026-04-29 21:13 | 51.49010 | 7.71022 | 36371 ft | 458 kts | 307° |
| 2026-04-29 21:13 | 51.52380 | 7.62336 | 36378 ft | 458 kts | 307° |
| 2026-04-29 21:14 | 51.55748 | 7.53627 | 36371 ft | 459 kts | 307° |
| 2026-04-29 21:14 | 51.59110 | 7.44902 | 36376 ft | 459 kts | 307° |
| 2026-04-29 21:15 | 51.62471 | 7.36149 | 36377 ft | 460 kts | 307° |
| 2026-04-29 21:15 | 51.65826 | 7.27382 | 36383 ft | 460 kts | 307° |
| 2026-04-29 21:16 | 51.69158 | 7.18646 | 36382 ft | 461 kts | 307° |
| 2026-04-29 21:16 | 51.72419 | 7.10065 | 36380 ft | 461 kts | 307° |
| 2026-04-29 21:17 | 51.75766 | 7.01230 | 36378 ft | 461 kts | 307° |
| 2026-04-29 21:17 | 51.79107 | 6.92379 | 36378 ft | 462 kts | 306° |
| 2026-04-29 21:18 | 51.82443 | 6.83512 | 36384 ft | 462 kts | 306° |
| 2026-04-29 21:18 | 51.85772 | 6.74631 | 36394 ft | 462 kts | 306° |
| 2026-04-29 21:19 | 51.89098 | 6.65730 | 36384 ft | 462 kts | 306° |
| 2026-04-29 21:19 | 51.92414 | 6.56821 | 36384 ft | 462 kts | 306° |
| 2026-04-29 21:20 | 51.95726 | 6.47894 | 36385 ft | 462 kts | 306° |
| 2026-04-29 21:20 | 51.99028 | 6.38960 | 36388 ft | 462 kts | 306° |
| 2026-04-29 21:21 | 52.02323 | 6.30016 | 36387 ft | 462 kts | 306° |
| 2026-04-29 21:21 | 52.05611 | 6.21059 | 36381 ft | 462 kts | 306° |
| 2026-04-29 21:22 | 52.08869 | 6.12149 | 36379 ft | 462 kts | 305° |
| 2026-04-29 21:22 | 52.12145 | 6.03163 | 36377 ft | 462 kts | 305° |
| 2026-04-29 21:23 | 52.15415 | 5.94158 | 36374 ft | 462 kts | 305° |
| 2026-04-29 21:23 | 52.18681 | 5.85134 | 36378 ft | 463 kts | 305° |
| 2026-04-29 21:24 | 52.21941 | 5.76093 | 36376 ft | 463 kts | 305° |
| 2026-04-29 21:24 | 52.25197 | 5.67030 | 36394 ft | 463 kts | 304° |
| 2026-04-29 21:25 | 52.28448 | 5.57948 | 36396 ft | 463 kts | 304° |
| 2026-04-29 21:25 | 52.31691 | 5.48859 | 36397 ft | 463 kts | 304° |
| 2026-04-29 21:26 | 52.34928 | 5.39751 | 36399 ft | 463 kts | 304° |
| 2026-04-29 21:26 | 52.38160 | 5.30624 | 36399 ft | 464 kts | 304° |
| 2026-04-29 21:27 | 52.41370 | 5.21525 | 36394 ft | 464 kts | 304° |
| 2026-04-29 21:27 | 52.44589 | 5.12369 | 36396 ft | 464 kts | 304° |
| 2026-04-29 21:28 | 52.47804 | 5.03191 | 36385 ft | 464 kts | 303° |
| 2026-04-29 21:28 | 52.51013 | 4.93996 | 36381 ft | 464 kts | 303° |
| 2026-04-29 21:29 | 52.54217 | 4.84785 | 36379 ft | 464 kts | 304° |
| 2026-04-29 21:29 | 52.57538 | 4.75698 | 36391 ft | 464 kts | 305° |
| 2026-04-29 21:30 | 52.60929 | 4.66681 | 36379 ft | 464 kts | 305° |
| 2026-04-29 21:30 | 52.64282 | 4.57695 | 36387 ft | 464 kts | 305° |
| 2026-04-29 21:31 | 52.67633 | 4.48620 | 36407 ft | 464 kts | 304° |
| 2026-04-29 21:31 | 52.70745 | 4.40143 | 36393 ft | 464 kts | 304° |
| 2026-04-29 21:32 | 52.74075 | 4.31038 | 36404 ft | 464 kts | 304° |
| 2026-04-29 21:32 | 52.77398 | 4.21922 | 36413 ft | 464 kts | 304° |
| 2026-04-29 21:33 | 52.80714 | 4.12781 | 36409 ft | 463 kts | 304° |
| 2026-04-29 21:33 | 52.84026 | 4.03637 | 36416 ft | 463 kts | 304° |
| 2026-04-29 21:34 | 52.87326 | 3.94491 | 36419 ft | 463 kts | 304° |
| 2026-04-29 21:34 | 52.90623 | 3.85316 | 36416 ft | 463 kts | 303° |
| 2026-04-29 21:35 | 52.93909 | 3.76137 | 36414 ft | 463 kts | 303° |
| 2026-04-29 21:35 | 52.97188 | 3.66940 | 36415 ft | 463 kts | 303° |
| 2026-04-29 21:36 | 53.00459 | 3.57735 | 36416 ft | 463 kts | 303° |
| 2026-04-29 21:36 | 53.03725 | 3.48511 | 36406 ft | 463 kts | 303° |
| 2026-04-29 21:37 | 53.06985 | 3.39269 | 36404 ft | 463 kts | 303° |
| 2026-04-29 21:37 | 53.10041 | 3.29822 | 36390 ft | 466 kts | 294° |
| 2026-04-29 21:38 | 53.11713 | 3.19374 | 36402 ft | 469 kts | 283° |
| 2026-04-29 21:38 | 53.13033 | 3.08741 | 36404 ft | 469 kts | 283° |
| 2026-04-29 21:39 | 53.14377 | 2.98177 | 36415 ft | 470 kts | 283° |
| 2026-04-29 21:39 | 53.15773 | 2.87470 | 36421 ft | 470 kts | 283° |
| 2026-04-29 21:40 | 53.17162 | 2.76813 | 36421 ft | 471 kts | 283° |
| 2026-04-29 21:40 | 53.18537 | 2.66153 | 36418 ft | 471 kts | 283° |
| 2026-04-29 21:41 | 53.19897 | 2.55540 | 36418 ft | 471 kts | 283° |
| 2026-04-29 21:41 | 53.21255 | 2.44831 | 36418 ft | 472 kts | 283° |
| 2026-04-29 21:42 | 53.22593 | 2.34116 | 36419 ft | 472 kts | 282° |
| 2026-04-29 21:42 | 53.23707 | 2.25131 | 36421 ft | 472 kts | 282° |
| 2026-04-29 21:43 | 53.25244 | 2.12657 | 36424 ft | 472 kts | 282° |
| 2026-04-29 21:43 | 53.26556 | 2.01917 | 36424 ft | 472 kts | 282° |
| 2026-04-29 21:44 | 53.27859 | 1.91163 | 36423 ft | 472 kts | 282° |
| 2026-04-29 21:44 | 53.29154 | 1.80399 | 36421 ft | 473 kts | 282° |
| 2026-04-29 21:45 | 53.30438 | 1.69628 | 36422 ft | 473 kts | 281° |
| 2026-04-29 21:45 | 53.31716 | 1.58837 | 36420 ft | 473 kts | 281° |
| 2026-04-29 21:46 | 53.33004 | 1.48044 | 36422 ft | 473 kts | 282° |
| 2026-04-29 21:46 | 53.34501 | 1.37629 | 36422 ft | 473 kts | 284° |
| 2026-04-29 21:47 | 53.36110 | 1.26952 | 36420 ft | 474 kts | 284° |
| 2026-04-29 21:47 | 53.37681 | 1.16230 | 36415 ft | 474 kts | 283° |
| 2026-04-29 21:48 | 53.39217 | 1.05487 | 36418 ft | 474 kts | 283° |
| 2026-04-29 21:48 | 53.40729 | 0.94802 | 36416 ft | 475 kts | 283° |
| 2026-04-29 21:49 | 53.42242 | 0.84035 | 36416 ft | 475 kts | 283° |
| 2026-04-29 21:49 | 53.43748 | 0.73258 | 36413 ft | 475 kts | 282° |
| 2026-04-29 21:50 | 53.45245 | 0.62472 | 36413 ft | 475 kts | 282° |
| 2026-04-29 21:50 | 53.46731 | 0.51683 | 36412 ft | 474 kts | 282° |
| 2026-04-29 21:51 | 53.48208 | 0.40893 | 36410 ft | 474 kts | 282° |
| 2026-04-29 21:51 | 53.50414 | 0.24717 | 36403 ft | 473 kts | 282° |
| 2026-04-29 21:52 | 53.51876 | 0.13944 | 36404 ft | 472 kts | 281° |
| 2026-04-29 21:52 | 53.53317 | 0.03187 | 36401 ft | 472 kts | 281° |
| 2026-04-29 21:53 | 53.54730 | -0.07571 | 36400 ft | 471 kts | 281° |
| 2026-04-29 21:53 | 53.56123 | -0.18241 | 36401 ft | 470 kts | 281° |
| 2026-04-29 21:54 | 53.57518 | -0.28978 | 36403 ft | 469 kts | 281° |
| 2026-04-29 21:54 | 53.58904 | -0.39713 | 36400 ft | 469 kts | 281° |
| 2026-04-29 21:55 | 53.60283 | -0.50446 | 36398 ft | 469 kts | 280° |
| 2026-04-29 21:55 | 53.61654 | -0.61195 | 36410 ft | 470 kts | 280° |
| 2026-04-29 21:56 | 53.62796 | -0.70217 | 36403 ft | 470 kts | 280° |
| 2026-04-29 21:56 | 53.63986 | -0.79670 | 36405 ft | 470 kts | 280° |
| 2026-04-29 21:57 | 53.65334 | -0.90459 | 36409 ft | 471 kts | 279° |
| 2026-04-29 21:57 | 53.66675 | -1.01265 | 36413 ft | 471 kts | 279° |
| 2026-04-29 21:58 | 53.68011 | -1.12099 | 36145 ft | 476 kts | 279° |
| 2026-04-29 21:58 | 53.68684 | -1.17594 | 35539 ft | 478 kts | 279° |
| 2026-04-29 21:58 | 53.69356 | -1.23086 | 34899 ft | 478 kts | 279° |
| 2026-04-29 21:59 | 53.70025 | -1.28579 | 34195 ft | 478 kts | 279° |
| 2026-04-29 21:59 | 53.70691 | -1.34078 | 33429 ft | 479 kts | 279° |
| 2026-04-29 21:59 | 53.71696 | -1.39522 | 32638 ft | 484 kts | 296° |
| 2026-04-29 21:59 | 53.73521 | -1.44189 | 31951 ft | 484 kts | 310° |
| 2026-04-29 22:00 | 53.76076 | -1.47992 | 31162 ft | 485 kts | 327° |
| 2026-04-29 22:00 | 53.78953 | -1.50965 | 30392 ft | 485 kts | 330° |
| 2026-04-29 22:00 | 53.81879 | -1.53839 | 29550 ft | 485 kts | 330° |
| 2026-04-29 22:00 | 53.84737 | -1.56638 | 28976 ft | 478 kts | 330° |
| 2026-04-29 22:01 | 53.87546 | -1.59436 | 28404 ft | 473 kts | 330° |
| 2026-04-29 22:01 | 53.90354 | -1.62284 | 27802 ft | 468 kts | 329° |
| 2026-04-29 22:01 | 53.93127 | -1.65132 | 27227 ft | 464 kts | 329° |
| 2026-04-29 22:01 | 53.95868 | -1.67964 | 26661 ft | 459 kts | 329° |
| 2026-04-29 22:02 | 53.98585 | -1.70774 | 26101 ft | 455 kts | 329° |
| 2026-04-29 22:02 | 54.01281 | -1.73561 | 25552 ft | 452 kts | 329° |
| 2026-04-29 22:02 | 54.03964 | -1.76336 | 24909 ft | 451 kts | 329° |
| 2026-04-29 22:02 | 54.06652 | -1.79114 | 24240 ft | 453 kts | 329° |
| 2026-04-29 22:03 | 54.09343 | -1.81900 | 23464 ft | 453 kts | 329° |
| 2026-04-29 22:03 | 54.12084 | -1.84519 | 22705 ft | 451 kts | 339° |
| 2026-04-29 22:03 | 54.15087 | -1.85864 | 22059 ft | 443 kts | 353° |
| 2026-04-29 22:03 | 54.18147 | -1.86314 | 21335 ft | 440 kts | 1° |
| 2026-04-29 22:04 | 54.21180 | -1.86037 | 20642 ft | 434 kts | 12° |
| 2026-04-29 22:04 | 54.24134 | -1.85102 | 19992 ft | 430 kts | 14° |
| 2026-04-29 22:04 | 54.27056 | -1.84059 | 19327 ft | 425 kts | 15° |
| 2026-04-29 22:04 | 54.29921 | -1.83015 | 18684 ft | 416 kts | 15° |
| 2026-04-29 22:05 | 54.32716 | -1.82007 | 17972 ft | 407 kts | 15° |
| 2026-04-29 22:05 | 54.35457 | -1.81036 | 17316 ft | 397 kts | 15° |
| 2026-04-29 22:05 | 54.40785 | -1.79181 | 16114 ft | 385 kts | 15° |
| 2026-04-29 22:06 | 54.43422 | -1.78267 | 15528 ft | 387 kts | 15° |
| 2026-04-29 22:06 | 54.46069 | -1.77350 | 14938 ft | 389 kts | 15° |
| 2026-04-29 22:06 | 54.48735 | -1.76426 | 14349 ft | 392 kts | 15° |
| 2026-04-29 22:06 | 54.51403 | -1.75501 | 13776 ft | 390 kts | 15° |
| 2026-04-29 22:07 | 54.54026 | -1.74597 | 13564 ft | 380 kts | 16° |
| 2026-04-29 22:07 | 54.56577 | -1.73716 | 13461 ft | 368 kts | 16° |
| 2026-04-29 22:07 | 54.58985 | -1.72884 | 13264 ft | 348 kts | 16° |
| 2026-04-29 22:07 | 54.61288 | -1.72086 | 13136 ft | 328 kts | 17° |
| 2026-04-29 22:08 | 54.63470 | -1.71327 | 12919 ft | 313 kts | 17° |
| 2026-04-29 22:08 | 54.65637 | -1.70704 | 12426 ft | 314 kts | 7° |
| 2026-04-29 22:08 | 54.67797 | -1.70793 | 11904 ft | 315 kts | 1° |
| 2026-04-29 22:08 | 54.70005 | -1.71053 | 11412 ft | 313 kts | 0° |
| 2026-04-29 22:09 | 54.72139 | -1.71331 | 10958 ft | 310 kts | 0° |
| 2026-04-29 22:09 | 54.74306 | -1.71622 | 10492 ft | 307 kts | 0° |
| 2026-04-29 22:09 | 54.76369 | -1.71908 | 10339 ft | 293 kts | 0° |
| 2026-04-29 22:09 | 54.78330 | -1.72201 | 10209 ft | 274 kts | 0° |
| 2026-04-29 22:10 | 54.80226 | -1.72494 | 9533 ft | 275 kts | 360° |
| 2026-04-29 22:10 | 54.82132 | -1.72783 | 8848 ft | 275 kts | 360° |
| 2026-04-29 22:10 | 54.84004 | -1.73067 | 8456 ft | 263 kts | 360° |
| 2026-04-29 22:10 | 54.85805 | -1.73349 | 7974 ft | 258 kts | 360° |
| 2026-04-29 22:11 | 54.87577 | -1.73624 | 7573 ft | 250 kts | 360° |
| 2026-04-29 22:11 | 54.89275 | -1.73893 | 7285 ft | 239 kts | 360° |
| 2026-04-29 22:11 | 54.90895 | -1.74159 | 6955 ft | 231 kts | 359° |
| 2026-04-29 22:11 | 54.92423 | -1.75050 | 6455 ft | 238 kts | 327° |
| 2026-04-29 22:12 | 54.93483 | -1.77238 | 6004 ft | 239 kts | 292° |
| 2026-04-29 22:12 | 54.93735 | -1.80030 | 5544 ft | 233 kts | 261° |
| 2026-04-29 22:12 | 54.93483 | -1.82785 | 5099 ft | 230 kts | 256° |
| 2026-04-29 22:12 | 54.93184 | -1.85512 | 4638 ft | 229 kts | 255° |
| 2026-04-29 22:13 | 54.92883 | -1.88212 | 4178 ft | 227 kts | 255° |
| 2026-04-29 22:13 | 54.92581 | -1.90873 | 3805 ft | 221 kts | 255° |
| 2026-04-29 22:13 | 54.92380 | -1.93490 | 3665 ft | 220 kts | 273° |
| 2026-04-29 22:13 | 54.92934 | -1.95987 | 3644 ft | 227 kts | 310° |
| 2026-04-29 22:14 | 54.94166 | -1.97536 | 3618 ft | 213 kts | 346° |
| 2026-04-29 22:14 | 54.95568 | -1.97749 | 3606 ft | 197 kts | 20° |
| 2026-04-29 22:14 | 54.96627 | -1.96511 | 3518 ft | 182 kts | 64° |
| 2026-04-29 22:14 | 54.97062 | -1.94470 | 3325 ft | 181 kts | 73° |
| 2026-04-29 22:15 | 54.97583 | -1.92467 | 3085 ft | 180 kts | 69° |
| 2026-04-29 22:15 | 54.98105 | -1.90536 | 2842 ft | 171 kts | 69° |
| 2026-04-29 22:15 | 54.98583 | -1.88734 | 2602 ft | 161 kts | 69° |
| 2026-04-29 22:15 | 54.99041 | -1.86994 | 2399 ft | 152 kts | 70° |
| 2026-04-29 22:16 | 54.99464 | -1.85384 | 2231 ft | 143 kts | 69° |
| 2026-04-29 22:16 | 54.99861 | -1.83872 | 1994 ft | 132 kts | 69° |
| 2026-04-29 22:16 | 55.00184 | -1.82646 | 1843 ft | 129 kts | 69° |
| 2026-04-29 22:16 | 55.00558 | -1.81226 | 1705 ft | 127 kts | 69° |
| 2026-04-29 22:17 | 55.00931 | -1.79808 | 1498 ft | 129 kts | 68° |
| 2026-04-29 22:17 | 55.01304 | -1.78392 | 1309 ft | 129 kts | 68° |
| 2026-04-29 22:17 | 55.01685 | -1.76944 | 1140 ft | 132 kts | 67° |
| 2026-04-29 22:17 | 55.02069 | -1.75480 | 925 ft | 135 kts | 66° |
| 2026-04-29 22:18 | 55.02469 | -1.73995 | 745 ft | 134 kts | 66° |
| 2026-04-29 22:18 | 55.02850 | -1.72536 | 573 ft | 131 kts | 66° |
| 2026-04-29 22:18 | 55.03233 | -1.71094 | 385 ft | 131 kts | 66° |
| 2026-04-29 22:18 | 55.03606 | -1.69686 | 272 ft | 119 kts | 66° |
| 2026-04-29 22:19 | 55.03898 | -1.68583 | 260 ft | 78 kts | 65° |
| 2026-04-29 22:19 | 55.04067 | -1.67943 | 251 ft | 46 kts | 65° |
| 2026-04-29 22:19 | 55.04167 | -1.67566 | 249 ft | 26 kts | 66° |
| 2026-04-29 22:19 | 55.04224 | -1.67380 | 248 ft | 10 kts | 38° |
| 2026-04-29 22:20 | 55.04287 | -1.67376 | 247 ft | 9 kts | 343° |
| 2026-04-29 22:20 | 55.04327 | -1.67472 | 248 ft | 12 kts | 278° |
| 2026-04-29 22:20 | 55.04333 | -1.67614 | 249 ft | 11 kts | 265° |
| 2026-04-29 22:20 | 55.04307 | -1.67735 | 250 ft | 11 kts | 244° |
| 2026-04-29 22:21 | 55.04264 | -1.67894 | 252 ft | 16 kts | 246° |
| 2026-04-29 22:21 | 55.04215 | -1.68078 | 254 ft | 17 kts | 244° |
| 2026-04-29 22:21 | 55.04165 | -1.68265 | 256 ft | 19 kts | 245° |
| 2026-04-29 22:21 | 55.04105 | -1.68490 | 258 ft | 21 kts | 245° |
| 2026-04-29 22:22 | 55.04045 | -1.68716 | 260 ft | 19 kts | 245° |
| 2026-04-29 22:22 | 55.03991 | -1.68917 | 262 ft | 17 kts | 246° |
| 2026-04-29 22:22 | 55.03945 | -1.69096 | 264 ft | 15 kts | 245° |
| 2026-04-29 22:22 | 55.03894 | -1.69284 | 266 ft | 19 kts | 245° |
| 2026-04-29 22:23 | 55.03837 | -1.69505 | 268 ft | 21 kts | 247° |
| 2026-04-29 22:23 | 55.03793 | -1.69747 | 269 ft | 21 kts | 258° |
| 2026-04-29 22:23 | 55.03775 | -1.69990 | 269 ft | 20 kts | 266° |
| 2026-04-29 22:23 | 55.03776 | -1.70231 | 268 ft | 17 kts | 274° |
| 2026-04-29 22:24 | 55.03783 | -1.70353 | 267 ft | 8 kts | 271° |
| 2026-04-29 22:24 | 55.03766 | -1.70424 | 268 ft | 2 kts | 205° |
| 2026-04-29 22:24 | 55.03724 | -1.70430 | 269 ft | 7 kts | 186° |
| 2026-04-29 22:24 | 55.03702 | -1.70494 | 275 ft | 7 kts | 261° |
| 2026-04-29 22:25 | 55.03698 | -1.70554 | 271 ft | 2 kts | 263° |
| 2026-04-29 22:25 | 55.03697 | -1.70568 | 271 ft | 0 kts | 263° |